sensor_id;sensor_type;location;lat;lon;timestamp;pressure;altitude;pressure_sealevel;temperature;humidity
10646;BME280;5371;49.782;9.932;2023-02-16T00:00:30;100821.72;;;0.56;100.00
10646;BME280;5371;49.782;9.932;2023-02-16T00:02:57;100818.31;;;0.60;100.00
10646;BME280;5371;49.782;9.932;2023-02-16T00:05:27;100823.44;;;0.65;100.00
10646;BME280;5371;49.782;9.932;2023-02-16T00:07:56;100820.88;;;0.31;100.00
10646;BME280;5371;49.782;9.932;2023-02-16T00:10:25;100825.13;;;0.14;100.00
10646;BME280;5371;49.782;9.932;2023-02-16T00:12:52;100829.38;;;-0.06;100.00
10646;BME280;5371;49.782;9.932;2023-02-16T00:15:38;100813.97;;;0.02;100.00
10646;BME280;5371;49.782;9.932;2023-02-16T00:18:13;100819.13;;;0.11;100.00
10646;BME280;5371;49.782;9.932;2023-02-16T00:20:42;100819.03;;;-0.30;100.00
10646;BME280;5371;49.782;9.932;2023-02-16T00:23:08;100805.41;;;0.06;100.00
10646;BME280;5371;49.782;9.932;2023-02-16T00:25:36;100799.44;;;0.22;100.00
10646;BME280;5371;49.782;9.932;2023-02-16T00:28:06;100803.72;;;0.43;100.00
10646;BME280;5371;49.782;9.932;2023-02-16T00:30:33;100801.06;;;-0.23;100.00
10646;BME280;5371;49.782;9.932;2023-02-16T00:33:03;100805.44;;;0.16;100.00
10646;BME280;5371;49.782;9.932;2023-02-16T00:35:31;100798.56;;;0.15;100.00
10646;BME280;5371;49.782;9.932;2023-02-16T00:37:58;100807.16;;;0.42;100.00
10646;BME280;5371;49.782;9.932;2023-02-16T00:40:25;100802.03;;;0.45;100.00
10646;BME280;5371;49.782;9.932;2023-02-16T00:42:52;100802.88;;;0.34;100.00
10646;BME280;5371;49.782;9.932;2023-02-16T00:45:21;100800.28;;;0.28;100.00
10646;BME280;5371;49.782;9.932;2023-02-16T00:47:51;100805.44;;;0.09;100.00
10646;BME280;5371;49.782;9.932;2023-02-16T00:50:23;100804.59;;;0.23;100.00
10646;BME280;5371;49.782;9.932;2023-02-16T00:52:52;100803.69;;;0.03;100.00
10646;BME280;5371;49.782;9.932;2023-02-16T00:55:20;100795.13;;;0.13;100.00
10646;BME280;5371;49.782;9.932;2023-02-16T00:57:51;100792.56;;;0.04;100.00
10646;BME280;5371;49.782;9.932;2023-02-16T01:00:23;100790.00;;;0.19;100.00
10646;BME280;5371;49.782;9.932;2023-02-16T01:02:54;100787.34;;;-0.29;100.00
10646;BME280;5371;49.782;9.932;2023-02-16T01:05:23;100789.88;;;-0.43;100.00
10646;BME280;5371;49.782;9.932;2023-02-16T01:07:50;100792.56;;;0.09;100.00
10646;BME280;5371;49.782;9.932;2023-02-16T01:10:37;100792.59;;;0.16;100.00
10646;BME280;5371;49.782;9.932;2023-02-16T01:13:22;100790.88;;;0.40;100.00
10646;BME280;5371;49.782;9.932;2023-02-16T01:15:50;100793.41;;;0.09;100.00
10646;BME280;5371;49.782;9.932;2023-02-16T01:18:18;100786.59;;;0.23;100.00
10646;BME280;5371;49.782;9.932;2023-02-16T01:20:47;100785.72;;;0.29;100.00
10646;BME280;5371;49.782;9.932;2023-02-16T01:23:14;100788.28;;;0.47;100.00
10646;BME280;5371;49.782;9.932;2023-02-16T01:25:41;100774.56;;;0.50;100.00
10646;BME280;5371;49.782;9.932;2023-02-16T01:28:16;100786.53;;;-0.07;100.00
10646;BME280;5371;49.782;9.932;2023-02-16T01:30:44;100782.28;;;0.30;100.00
10646;BME280;5371;49.782;9.932;2023-02-16T01:33:11;100789.16;;;0.32;100.00
10646;BME280;5371;49.782;9.932;2023-02-16T01:35:38;100777.88;;;-0.55;100.00
10646;BME280;5371;49.782;9.932;2023-02-16T01:38:13;100771.03;;;-0.41;100.00
10646;BME280;5371;49.782;9.932;2023-02-16T01:40:44;100766.84;;;0.01;100.00
10646;BME280;5371;49.782;9.932;2023-02-16T01:43:19;100770.28;;;0.27;100.00
10646;BME280;5371;49.782;9.932;2023-02-16T01:45:53;100754.84;;;0.38;100.00
10646;BME280;5371;49.782;9.932;2023-02-16T01:48:24;100754.88;;;0.32;100.00
10646;BME280;5371;49.782;9.932;2023-02-16T01:50:55;100751.44;;;0.39;100.00
10646;BME280;5371;49.782;9.932;2023-02-16T01:53:30;100754.84;;;0.36;100.00
10646;BME280;5371;49.782;9.932;2023-02-16T01:56:02;100761.72;;;0.18;100.00
10646;BME280;5371;49.782;9.932;2023-02-16T01:58:35;100764.28;;;0.13;100.00
10646;BME280;5371;49.782;9.932;2023-02-16T02:01:33;100767.69;;;-0.05;100.00
10646;BME280;5371;49.782;9.932;2023-02-16T02:04:06;100762.56;;;-0.05;100.00
10646;BME280;5371;49.782;9.932;2023-02-16T02:06:52;100769.41;;;-0.05;100.00
10646;BME280;5371;49.782;9.932;2023-02-16T02:09:24;100769.34;;;-0.26;100.00
10646;BME280;5371;49.782;9.932;2023-02-16T02:11:59;100752.22;;;-0.46;100.00
10646;BME280;5371;49.782;9.932;2023-02-16T02:14:32;100766.75;;;-0.49;100.00
10646;BME280;5371;49.782;9.932;2023-02-16T02:17:04;100766.84;;;-0.11;100.00
10646;BME280;5371;49.782;9.932;2023-02-16T02:19:44;100766.00;;;0.04;100.00
10646;BME280;5371;49.782;9.932;2023-02-16T02:22:35;100753.81;;;-0.69;100.00
10646;BME280;5371;49.782;9.932;2023-02-16T02:25:52;100736.84;;;-0.18;100.00
10646;BME280;5371;49.782;9.932;2023-02-16T02:28:38;100741.16;;;0.06;100.00
10646;BME280;5371;49.782;9.932;2023-02-16T02:31:10;100743.63;;;-0.45;100.00
10646;BME280;5371;49.782;9.932;2023-02-16T02:33:47;100743.72;;;-0.10;100.00
10646;BME280;5371;49.782;9.932;2023-02-16T02:36:24;100732.56;;;0.05;100.00
10646;BME280;5371;49.782;9.932;2023-02-16T02:39:03;100728.31;;;0.18;100.00
10646;BME280;5371;49.782;9.932;2023-02-16T02:41:38;100720.56;;;0.33;100.00
10646;BME280;5371;49.782;9.932;2023-02-16T02:44:38;100730.00;;;0.25;100.00
10646;BME280;5371;49.782;9.932;2023-02-16T02:47:07;100726.56;;;0.11;100.00
10646;BME280;5371;49.782;9.932;2023-02-16T02:49:34;100723.16;;;-0.10;100.00
10646;BME280;5371;49.782;9.932;2023-02-16T02:52:02;100724.88;;;-0.12;100.00
10646;BME280;5371;49.782;9.932;2023-02-16T02:54:31;100734.22;;;-0.47;100.00
10646;BME280;5371;49.782;9.932;2023-02-16T02:57:19;100724.81;;;-0.38;100.00
10646;BME280;5371;49.782;9.932;2023-02-16T03:00:07;100723.06;;;-0.45;100.00
10646;BME280;5371;49.782;9.932;2023-02-16T03:02:56;100716.22;;;-0.49;100.00
10646;BME280;5371;49.782;9.932;2023-02-16T03:05:26;100711.94;;;-0.45;100.00
10646;BME280;5371;49.782;9.932;2023-02-16T03:07:59;100724.81;;;-0.41;100.00
10646;BME280;5371;49.782;9.932;2023-02-16T03:10:34;100723.97;;;-0.24;100.00
10646;BME280;5371;49.782;9.932;2023-02-16T03:13:23;100722.19;;;-0.53;100.00
10646;BME280;5371;49.782;9.932;2023-02-16T03:15:55;100729.09;;;-0.38;100.00
10646;BME280;5371;49.782;9.932;2023-02-16T03:18:24;100736.84;;;-0.18;100.00
10646;BME280;5371;49.782;9.932;2023-02-16T03:21:11;100734.13;;;-0.76;100.00
10646;BME280;5371;49.782;9.932;2023-02-16T03:23:59;100719.66;;;-0.47;100.00
10646;BME280;5371;49.782;9.932;2023-02-16T03:26:44;100735.03;;;-0.53;100.00
10646;BME280;5371;49.782;9.932;2023-02-16T03:29:31;100726.50;;;-0.44;100.00
10646;BME280;5371;49.782;9.932;2023-02-16T03:32:00;100728.03;;;-0.99;100.00
10646;BME280;5371;49.782;9.932;2023-02-16T03:34:28;100733.22;;;-0.87;100.00
10646;BME280;5371;49.782;9.932;2023-02-16T03:36:57;100728.91;;;-0.94;100.00
10646;BME280;5371;49.782;9.932;2023-02-16T03:39:26;100727.28;;;-0.71;100.00
10646;BME280;5371;49.782;9.932;2023-02-16T03:41:55;100723.03;;;-0.60;100.00
10646;BME280;5371;49.782;9.932;2023-02-16T03:44:23;100733.97;;;-1.09;100.00
10646;BME280;5371;49.782;9.932;2023-02-16T03:46:51;100724.63;;;-1.01;100.00
10646;BME280;5371;49.782;9.932;2023-02-16T03:49:19;100737.31;;;-1.23;100.00
10646;BME280;5371;49.782;9.932;2023-02-16T03:51:46;100731.59;;;-0.64;100.00
10646;BME280;5371;49.782;9.932;2023-02-16T03:54:13;100737.44;;;-1.03;100.00
10646;BME280;5371;49.782;9.932;2023-02-16T03:56:40;100738.44;;;-0.61;100.00
10646;BME280;5371;49.782;9.932;2023-02-16T03:59:07;100733.38;;;-0.42;100.00
10646;BME280;5371;49.782;9.932;2023-02-16T04:01:34;100740.25;;;-0.38;100.00
10646;BME280;5371;49.782;9.932;2023-02-16T04:04:01;100735.09;;;-0.31;100.00
10646;BME280;5371;49.782;9.932;2023-02-16T04:06:29;100742.81;;;-0.28;100.00
10646;BME280;5371;49.782;9.932;2023-02-16T04:08:56;100739.44;;;-0.09;100.00
10646;BME280;5371;49.782;9.932;2023-02-16T04:11:23;100745.38;;;-0.39;100.00
10646;BME280;5371;49.782;9.932;2023-02-16T04:14:07;100736.84;;;-0.06;100.00
10646;BME280;5371;49.782;9.932;2023-02-16T04:16:34;100741.88;;;-0.64;100.00
10646;BME280;5371;49.782;9.932;2023-02-16T04:19:01;100731.63;;;-0.58;100.00
10646;BME280;5371;49.782;9.932;2023-02-16T04:21:29;100738.50;;;-0.35;100.00
10646;BME280;5371;49.782;9.932;2023-02-16T04:23:56;100745.25;;;-0.71;100.00
10646;BME280;5371;49.782;9.932;2023-02-16T04:26:23;100752.09;;;-0.70;100.00
10646;BME280;5371;49.782;9.932;2023-02-16T04:28:50;100748.72;;;-0.66;100.00
10646;BME280;5371;49.782;9.932;2023-02-16T04:31:17;100746.16;;;-0.61;100.00
10646;BME280;5371;49.782;9.932;2023-02-16T04:33:44;100749.66;;;-0.36;100.00
10646;BME280;5371;49.782;9.932;2023-02-16T04:36:10;100743.66;;;-0.26;100.00
10646;BME280;5371;49.782;9.932;2023-02-16T04:38:39;100749.69;;;-0.15;100.00
10646;BME280;5371;49.782;9.932;2023-02-16T04:41:06;100752.19;;;-0.49;100.00
10646;BME280;5371;49.782;9.932;2023-02-16T04:43:33;100744.41;;;-0.68;100.00
10646;BME280;5371;49.782;9.932;2023-02-16T04:46:00;100739.19;;;-0.90;100.00
10646;BME280;5371;49.782;9.932;2023-02-16T04:48:26;100739.25;;;-0.78;100.00
10646;BME280;5371;49.782;9.932;2023-02-16T04:50:53;100735.03;;;-0.65;100.00
10646;BME280;5371;49.782;9.932;2023-02-16T04:53:20;100735.84;;;-0.70;100.00
10646;BME280;5371;49.782;9.932;2023-02-16T04:55:49;100734.16;;;-0.67;100.00
10646;BME280;5371;49.782;9.932;2023-02-16T04:58:16;100734.16;;;-0.65;100.00
10646;BME280;5371;49.782;9.932;2023-02-16T05:00:43;100740.00;;;-0.98;100.00
10646;BME280;5371;49.782;9.932;2023-02-16T05:03:10;100734.97;;;-0.71;100.00
10646;BME280;5371;49.782;9.932;2023-02-16T05:05:38;100746.13;;;-0.70;100.00
10646;BME280;5371;49.782;9.932;2023-02-16T05:08:06;100741.91;;;-0.49;100.00
10646;BME280;5371;49.782;9.932;2023-02-16T05:10:33;100741.84;;;-0.74;100.00
10646;BME280;5371;49.782;9.932;2023-02-16T05:13:01;100742.72;;;-0.60;100.00
10646;BME280;5371;49.782;9.932;2023-02-16T05:15:57;100741.91;;;-0.55;100.00
10646;BME280;5371;49.782;9.932;2023-02-16T05:18:24;100742.63;;;-0.89;100.00
10646;BME280;5371;49.782;9.932;2023-02-16T05:20:51;100741.78;;;-0.85;100.00
10646;BME280;5371;49.782;9.932;2023-02-16T05:23:36;100749.47;;;-0.88;100.00
10646;BME280;5371;49.782;9.932;2023-02-16T05:26:03;100740.94;;;-0.80;100.00
10646;BME280;5371;49.782;9.932;2023-02-16T05:28:31;100735.88;;;-0.66;100.00
10646;BME280;5371;49.782;9.932;2023-02-16T05:30:58;100742.69;;;-0.69;100.00
10646;BME280;5371;49.782;9.932;2023-02-16T05:33:25;100747.91;;;-0.48;100.00
10646;BME280;5371;49.782;9.932;2023-02-16T05:35:52;100740.94;;;-0.83;100.00
10646;BME280;5371;49.782;9.932;2023-02-16T05:38:20;100752.75;;;-1.20;100.00
10646;BME280;5371;49.782;9.932;2023-02-16T05:40:46;100748.38;;;-1.33;100.00
10646;BME280;5371;49.782;9.932;2023-02-16T05:43:13;100751.03;;;-1.19;100.00
10646;BME280;5371;49.782;9.932;2023-02-16T05:45:42;100751.75;;;-1.40;100.00
10646;BME280;5371;49.782;9.932;2023-02-16T05:48:09;100747.59;;;-1.23;100.00
10646;BME280;5371;49.782;9.932;2023-02-16T05:50:36;100746.81;;;-1.09;100.00
10646;BME280;5371;49.782;9.932;2023-02-16T05:53:03;100755.44;;;-0.89;100.00
10646;BME280;5371;49.782;9.932;2023-02-16T05:55:29;100751.16;;;-0.95;100.00
10646;BME280;5371;49.782;9.932;2023-02-16T05:57:56;100762.19;;;-1.13;100.00
10646;BME280;5371;49.782;9.932;2023-02-16T06:00:24;100760.50;;;-1.04;100.00
10646;BME280;5371;49.782;9.932;2023-02-16T06:02:52;100759.44;;;-1.41;100.00
10646;BME280;5371;49.782;9.932;2023-02-16T06:05:19;100757.03;;;-1.19;100.00
10646;BME280;5371;49.782;9.932;2023-02-16T06:07:46;100754.56;;;-0.96;100.00
10646;BME280;5371;49.782;9.932;2023-02-16T06:10:13;100762.31;;;-0.91;100.00
10646;BME280;5371;49.782;9.932;2023-02-16T06:12:41;100764.97;;;-0.61;100.00
10646;BME280;5371;49.782;9.932;2023-02-16T06:15:08;100767.56;;;-0.58;100.00
10646;BME280;5371;49.782;9.932;2023-02-16T06:17:35;100777.03;;;-0.46;100.00
10646;BME280;5371;49.782;9.932;2023-02-16T06:20:04;100786.38;;;-0.66;100.00
10646;BME280;5371;49.782;9.932;2023-02-16T06:22:32;100781.28;;;-0.53;100.00
10646;BME280;5371;49.782;9.932;2023-02-16T06:24:58;100781.41;;;0.02;100.00
10646;BME280;5371;49.782;9.932;2023-02-16T06:27:26;100773.72;;;0.05;100.00
10646;BME280;5371;49.782;9.932;2023-02-16T06:29:53;100766.00;;;-0.01;100.00
10646;BME280;5371;49.782;9.932;2023-02-16T06:32:20;100771.94;;;-0.28;100.00
10646;BME280;5371;49.782;9.932;2023-02-16T06:34:47;100764.22;;;-0.23;100.00
10646;BME280;5371;49.782;9.932;2023-02-16T06:37:15;100762.50;;;-0.33;100.00
10646;BME280;5371;49.782;9.932;2023-02-16T06:39:42;100770.13;;;-0.53;100.00
10646;BME280;5371;49.782;9.932;2023-02-16T06:42:09;100771.94;;;-0.28;100.00
10646;BME280;5371;49.782;9.932;2023-02-16T06:44:36;100769.38;;;-0.23;100.00
10646;BME280;5371;49.782;9.932;2023-02-16T06:47:08;100771.91;;;-0.35;100.00
10646;BME280;5371;49.782;9.932;2023-02-16T06:49:35;100771.03;;;-0.48;100.00
10646;BME280;5371;49.782;9.932;2023-02-16T06:52:03;100771.75;;;-0.78;100.00
10646;BME280;5371;49.782;9.932;2023-02-16T06:54:31;100768.31;;;-0.80;100.00
10646;BME280;5371;49.782;9.932;2023-02-16T06:56:58;100772.66;;;-0.70;100.00
10646;BME280;5371;49.782;9.932;2023-02-16T06:59:25;100773.59;;;-0.48;100.00
10646;BME280;5371;49.782;9.932;2023-02-16T07:01:52;100774.91;;;-1.26;100.00
10646;BME280;5371;49.782;9.932;2023-02-16T07:04:19;100781.09;;;-0.95;100.00
10646;BME280;5371;49.782;9.932;2023-02-16T07:06:46;100793.09;;;-0.88;100.00
10646;BME280;5371;49.782;9.932;2023-02-16T07:09:13;100784.44;;;-1.08;100.00
10646;BME280;5371;49.782;9.932;2023-02-16T07:11:42;100795.50;;;-1.16;100.00
10646;BME280;5371;49.782;9.932;2023-02-16T07:14:09;100785.78;;;-1.61;100.00
10646;BME280;5371;49.782;9.932;2023-02-16T07:16:36;100791.81;;;-1.56;100.00
10646;BME280;5371;49.782;9.932;2023-02-16T07:19:02;100785.19;;;-1.28;100.00
10646;BME280;5371;49.782;9.932;2023-02-16T07:21:30;100792.06;;;-1.18;100.00
10646;BME280;5371;49.782;9.932;2023-02-16T07:23:57;100792.97;;;-1.14;100.00
10646;BME280;5371;49.782;9.932;2023-02-16T07:26:24;100785.28;;;-1.11;100.00
10646;BME280;5371;49.782;9.932;2023-02-16T07:28:52;100793.16;;;-0.76;100.00
10646;BME280;5371;49.782;9.932;2023-02-16T07:31:19;100791.16;;;-1.26;100.00
10646;BME280;5371;49.782;9.932;2023-02-16T07:33:46;100793.66;;;-1.35;100.00
10646;BME280;5371;49.782;9.932;2023-02-16T07:36:13;100796.28;;;-1.27;100.00
10646;BME280;5371;49.782;9.932;2023-02-16T07:38:41;100799.81;;;-1.11;100.00
10646;BME280;5371;49.782;9.932;2023-02-16T07:41:08;100797.78;;;-1.58;100.00
10646;BME280;5371;49.782;9.932;2023-02-16T07:43:35;100802.88;;;-1.64;100.00
10646;BME280;5371;49.782;9.932;2023-02-16T07:46:03;100796.19;;;-1.41;100.00
10646;BME280;5371;49.782;9.932;2023-02-16T07:48:31;100798.97;;;-1.07;100.00
10646;BME280;5371;49.782;9.932;2023-02-16T07:50:58;100798.66;;;-1.53;100.00
10646;BME280;5371;49.782;9.932;2023-02-16T07:53:25;100797.00;;;-1.45;100.00
10646;BME280;5371;49.782;9.932;2023-02-16T07:55:52;100793.00;;;-1.06;100.00
10646;BME280;5371;49.782;9.932;2023-02-16T07:58:19;100805.19;;;-0.67;100.00
10646;BME280;5371;49.782;9.932;2023-02-16T08:00:53;100791.53;;;-0.54;100.00
10646;BME280;5371;49.782;9.932;2023-02-16T08:03:22;100807.88;;;-0.32;100.00
10646;BME280;5371;49.782;9.932;2023-02-16T08:05:49;100811.22;;;-0.59;100.00
10646;BME280;5371;49.782;9.932;2023-02-16T08:08:16;100820.59;;;-0.69;100.00
10646;BME280;5371;49.782;9.932;2023-02-16T08:10:43;100823.19;;;-0.61;100.00
10646;BME280;5371;49.782;9.932;2023-02-16T08:13:10;100820.75;;;-0.29;100.00
10646;BME280;5371;49.782;9.932;2023-02-16T08:15:41;100816.44;;;-0.35;100.00
10646;BME280;5371;49.782;9.932;2023-02-16T08:18:08;100813.94;;;-0.20;100.00
10646;BME280;5371;49.782;9.932;2023-02-16T08:20:37;100816.44;;;-0.32;100.00
10646;BME280;5371;49.782;9.932;2023-02-16T08:23:04;100817.41;;;-0.01;100.00
10646;BME280;5371;49.782;9.932;2023-02-16T08:25:32;100809.69;;;-0.03;100.00
10646;BME280;5371;49.782;9.932;2023-02-16T08:27:59;100804.38;;;-0.54;100.00
10646;BME280;5371;49.782;9.932;2023-02-16T08:30:26;100817.78;;;-1.11;100.00
10646;BME280;5371;49.782;9.932;2023-02-16T08:32:53;100825.91;;;-0.23;100.00
10646;BME280;5371;49.782;9.932;2023-02-16T08:35:25;100820.69;;;-0.49;100.00
10646;BME280;5371;49.782;9.932;2023-02-16T08:37:54;100819.97;;;-0.04;100.00
10646;BME280;5371;49.782;9.932;2023-02-16T08:40:21;100809.72;;;0.13;100.00
10646;BME280;5371;49.782;9.932;2023-02-16T08:42:49;100811.44;;;0.36;100.00
10646;BME280;5371;49.782;9.932;2023-02-16T08:45:16;100811.44;;;0.41;100.00
10646;BME280;5371;49.782;9.932;2023-02-16T08:47:44;100809.72;;;0.40;100.00
10646;BME280;5371;49.782;9.932;2023-02-16T08:50:11;100814.03;;;0.52;100.00
10646;BME280;5371;49.782;9.932;2023-02-16T08:52:38;100809.72;;;0.07;100.00
10646;BME280;5371;49.782;9.932;2023-02-16T08:55:07;100816.38;;;-0.52;100.00
10646;BME280;5371;49.782;9.932;2023-02-16T08:57:33;100809.47;;;-0.62;100.00
10646;BME280;5371;49.782;9.932;2023-02-16T09:00:01;100810.47;;;-0.23;100.00
10646;BME280;5371;49.782;9.932;2023-02-16T09:02:45;100819.91;;;-0.24;100.00
10646;BME280;5371;49.782;9.932;2023-02-16T09:05:12;100814.50;;;-0.88;100.00
10646;BME280;5371;49.782;9.932;2023-02-16T09:07:40;100820.78;;;-0.08;100.00
10646;BME280;5371;49.782;9.932;2023-02-16T09:10:09;100815.56;;;-0.48;100.00
10646;BME280;5371;49.782;9.932;2023-02-16T09:12:36;100818.19;;;-0.31;100.00
10646;BME280;5371;49.782;9.932;2023-02-16T09:15:04;100821.72;;;0.27;100.00
10646;BME280;5371;49.782;9.932;2023-02-16T09:17:31;100810.59;;;0.41;100.00
10646;BME280;5371;49.782;9.932;2023-02-16T09:19:58;100815.75;;;0.62;100.00
10646;BME280;5371;49.782;9.932;2023-02-16T09:22:25;100819.16;;;0.55;100.00
10646;BME280;5371;49.782;9.932;2023-02-16T09:24:52;100815.72;;;0.50;100.00
10646;BME280;5371;49.782;9.932;2023-02-16T09:27:20;100814.59;;;-0.69;100.00
10646;BME280;5371;49.782;9.932;2023-02-16T09:29:47;100815.50;;;-0.57;100.00
10646;BME280;5371;49.782;9.932;2023-02-16T09:32:15;100813.94;;;-0.15;100.00
10646;BME280;5371;49.782;9.932;2023-02-16T09:34:42;100830.25;;;0.10;100.00
10646;BME280;5371;49.782;9.932;2023-02-16T09:37:10;100831.16;;;0.25;100.00
10646;BME280;5371;49.782;9.932;2023-02-16T09:39:38;100829.41;;;0.00;100.00
10646;BME280;5371;49.782;9.932;2023-02-16T09:42:17;100822.53;;;-0.10;100.00
10646;BME280;5371;49.782;9.932;2023-02-16T09:44:53;100830.06;;;-0.59;100.00
10646;BME280;5371;49.782;9.932;2023-02-16T09:47:26;100830.94;;;-0.57;100.00
10646;BME280;5371;49.782;9.932;2023-02-16T09:49:56;100835.28;;;-0.38;100.00
10646;BME280;5371;49.782;9.932;2023-02-16T09:52:29;100836.28;;;0.22;100.00
10646;BME280;5371;49.782;9.932;2023-02-16T09:55:03;100832.88;;;0.25;100.00
10646;BME280;5371;49.782;9.932;2023-02-16T09:57:41;100832.91;;;0.72;100.00
10646;BME280;5371;49.782;9.932;2023-02-16T10:00:22;100829.47;;;0.52;100.00
10646;BME280;5371;49.782;9.932;2023-02-16T10:02:54;100821.69;;;0.97;100.00
10646;BME280;5371;49.782;9.932;2023-02-16T10:05:28;100819.03;;;1.34;100.00
10646;BME280;5371;49.782;9.932;2023-02-16T10:08:02;100812.13;;;1.39;100.00
10646;BME280;5371;49.782;9.932;2023-02-16T10:10:41;100813.03;;;1.33;100.00
10646;BME280;5371;49.782;9.932;2023-02-16T10:13:16;100817.22;;;1.56;100.00
10646;BME280;5371;49.782;9.932;2023-02-16T10:15:47;100820.69;;;1.53;100.00
10646;BME280;5371;49.782;9.932;2023-02-16T10:18:22;100818.13;;;1.48;100.00
10646;BME280;5371;49.782;9.932;2023-02-16T10:20:52;100813.16;;;0.72;100.00
10646;BME280;5371;49.782;9.932;2023-02-16T10:23:32;100824.25;;;0.03;100.00
10646;BME280;5371;49.782;9.932;2023-02-16T10:26:13;100818.28;;;0.77;100.00
10646;BME280;5371;49.782;9.932;2023-02-16T10:28:45;100810.50;;;1.10;100.00
10646;BME280;5371;49.782;9.932;2023-02-16T10:31:19;100811.41;;;0.74;100.00
10646;BME280;5371;49.782;9.932;2023-02-16T10:33:59;100805.25;;;1.41;100.00
10646;BME280;5371;49.782;9.932;2023-02-16T10:36:35;100806.91;;;1.60;100.00
10646;BME280;5371;49.782;9.932;2023-02-16T10:39:15;100808.38;;;2.07;100.00
10646;BME280;5371;49.782;9.932;2023-02-16T10:41:49;100803.63;;;1.12;100.00
10646;BME280;5371;49.782;9.932;2023-02-16T10:44:22;100805.00;;;1.93;100.00
10646;BME280;5371;49.782;9.932;2023-02-16T10:46:55;100815.25;;;2.03;100.00
10646;BME280;5371;49.782;9.932;2023-02-16T10:49:25;100805.75;;;2.14;100.00
10646;BME280;5371;49.782;9.932;2023-02-16T10:51:55;100805.69;;;2.20;100.00
10646;BME280;5371;49.782;9.932;2023-02-16T10:54:26;100806.91;;;1.56;100.00
10646;BME280;5371;49.782;9.932;2023-02-16T10:56:54;100801.50;;;2.03;100.00
10646;BME280;5371;49.782;9.932;2023-02-16T10:59:27;100806.66;;;2.06;100.00
10646;BME280;5371;49.782;9.932;2023-02-16T11:01:58;100791.25;;;1.95;100.00
10646;BME280;5371;49.782;9.932;2023-02-16T11:04:44;100788.25;;;0.88;100.00
10646;BME280;5371;49.782;9.932;2023-02-16T11:07:14;100787.81;;;1.95;100.00
10646;BME280;5371;49.782;9.932;2023-02-16T11:09:42;100784.63;;;1.50;100.00
10646;BME280;5371;49.782;9.932;2023-02-16T11:12:23;100780.50;;;2.51;100.00
10646;BME280;5371;49.782;9.932;2023-02-16T11:14:54;100779.03;;;2.20;100.00
10646;BME280;5371;49.782;9.932;2023-02-16T11:17:25;100781.81;;;2.96;100.00
10646;BME280;5371;49.782;9.932;2023-02-16T11:19:54;100782.22;;;3.35;100.00
10646;BME280;5371;49.782;9.932;2023-02-16T11:22:31;100764.47;;;2.16;100.00
10646;BME280;5371;49.782;9.932;2023-02-16T11:25:18;100773.25;;;1.83;100.00
10646;BME280;5371;49.782;9.932;2023-02-16T11:27:52;100767.13;;;3.00;100.00
10646;BME280;5371;49.782;9.932;2023-02-16T11:30:26;100757.91;;;3.51;100.00
10646;BME280;5371;49.782;9.932;2023-02-16T11:32:59;100765.44;;;2.00;100.00
10646;BME280;5371;49.782;9.932;2023-02-16T11:35:29;100756.75;;;2.10;100.00
10646;BME280;5371;49.782;9.932;2023-02-16T11:37:57;100759.88;;;2.50;100.00
10646;BME280;5371;49.782;9.932;2023-02-16T11:40:26;100751.38;;;2.39;100.00
10646;BME280;5371;49.782;9.932;2023-02-16T11:42:56;100748.06;;;3.76;100.00
10646;BME280;5371;49.782;9.932;2023-02-16T11:45:26;100750.94;;;4.14;100.00
10646;BME280;5371;49.782;9.932;2023-02-16T11:47:56;100750.00;;;4.20;100.00
10646;BME280;5371;49.782;9.932;2023-02-16T11:50:26;100742.31;;;3.57;100.00
10646;BME280;5371;49.782;9.932;2023-02-16T11:52:56;100737.28;;;4.06;100.00
10646;BME280;5371;49.782;9.932;2023-02-16T11:55:27;100740.50;;;4.21;100.00
10646;BME280;5371;49.782;9.932;2023-02-16T11:58:13;100744.97;;;4.11;100.00
10646;BME280;5371;49.782;9.932;2023-02-16T12:00:48;100736.31;;;2.83;100.00
10646;BME280;5371;49.782;9.932;2023-02-16T12:03:46;100721.34;;;2.29;100.00
10646;BME280;5371;49.782;9.932;2023-02-16T12:06:29;100734.28;;;3.11;100.00
10646;BME280;5371;49.782;9.932;2023-02-16T12:09:11;100730.44;;;2.69;100.00
10646;BME280;5371;49.782;9.932;2023-02-16T12:11:53;100728.47;;;3.61;100.00
10646;BME280;5371;49.782;9.932;2023-02-16T12:14:33;100720.47;;;2.31;100.00
10646;BME280;5371;49.782;9.932;2023-02-16T12:17:15;100714.63;;;2.11;100.00
10646;BME280;5371;49.782;9.932;2023-02-16T12:19:46;100714.13;;;2.64;100.00
10646;BME280;5371;49.782;9.932;2023-02-16T12:22:25;100710.91;;;2.44;100.00
10646;BME280;5371;49.782;9.932;2023-02-16T12:25:03;100695.22;;;3.35;100.00
10646;BME280;5371;49.782;9.932;2023-02-16T12:27:39;100693.06;;;3.66;100.00
10646;BME280;5371;49.782;9.932;2023-02-16T12:30:24;100695.00;;;3.51;100.00
10646;BME280;5371;49.782;9.932;2023-02-16T12:33:08;100691.09;;;4.82;100.00
10646;BME280;5371;49.782;9.932;2023-02-16T12:35:55;100685.66;;;4.00;100.00
10646;BME280;5371;49.782;9.932;2023-02-16T12:38:35;100677.81;;;3.48;100.00
10646;BME280;5371;49.782;9.932;2023-02-16T12:41:15;100674.69;;;4.37;100.00
10646;BME280;5371;49.782;9.932;2023-02-16T12:43:46;100658.97;;;3.42;100.00
10646;BME280;5371;49.782;9.932;2023-02-16T12:46:18;100670.13;;;4.49;100.00
10646;BME280;5371;49.782;9.932;2023-02-16T12:48:49;100666.31;;;4.69;100.00
10646;BME280;5371;49.782;9.932;2023-02-16T12:51:20;100661.56;;;3.95;100.00
10646;BME280;5371;49.782;9.932;2023-02-16T12:53:56;100667.22;;;3.65;100.00
10646;BME280;5371;49.782;9.932;2023-02-16T12:56:28;100665.75;;;4.96;100.00
10646;BME280;5371;49.782;9.932;2023-02-16T12:59:14;100662.19;;;4.57;100.00
10646;BME280;5371;49.782;9.932;2023-02-16T13:01:42;100659.44;;;5.48;100.00
10646;BME280;5371;49.782;9.932;2023-02-16T13:04:17;100649.97;;;5.47;100.00
10646;BME280;5371;49.782;9.932;2023-02-16T13:06:51;100651.69;;;5.46;100.00
10646;BME280;5371;49.782;9.932;2023-02-16T13:09:31;100647.63;;;5.36;100.00
10646;BME280;5371;49.782;9.932;2023-02-16T13:12:07;100644.19;;;5.36;100.00
10646;BME280;5371;49.782;9.932;2023-02-16T13:14:41;100647.88;;;5.25;100.00
10646;BME280;5371;49.782;9.932;2023-02-16T13:17:13;100644.50;;;5.20;100.00